createdAt,value
2022-12-14T00:01:38.584Z,-7.20
2022-12-14T00:04:05.683Z,-7.30
2022-12-14T00:06:33.715Z,-7.40
2022-12-14T00:09:03.529Z,-7.50
2022-12-14T00:11:32.584Z,-7.50
2022-12-14T00:14:01.739Z,-7.50
2022-12-14T00:16:31.002Z,-7.60
2022-12-14T00:18:59.646Z,-7.60
2022-12-14T00:21:27.642Z,-7.70
2022-12-14T00:23:55.743Z,-7.70
2022-12-14T00:26:25.223Z,-7.70
2022-12-14T00:28:54.122Z,-7.80
2022-12-14T00:31:22.067Z,-7.80
2022-12-14T00:33:50.527Z,-7.90
2022-12-14T00:36:17.923Z,-7.90
2022-12-14T00:38:44.999Z,-8.00
2022-12-14T00:41:12.690Z,-8.00
2022-12-14T00:43:40.874Z,-8.10
2022-12-14T00:46:07.919Z,-8.20
2022-12-14T00:48:35.310Z,-8.20
2022-12-14T00:51:02.279Z,-8.20
2022-12-14T00:53:29.190Z,-8.10
2022-12-14T00:55:56.178Z,-8.00
2022-12-14T00:58:25.260Z,-7.90
2022-12-14T01:01:04.073Z,-7.80
2022-12-14T01:03:31.859Z,-7.60
2022-12-14T01:05:59.208Z,-7.50
2022-12-14T01:08:26.670Z,-7.40
2022-12-14T01:10:53.646Z,-7.30
2022-12-14T01:13:20.602Z,-7.20
2022-12-14T01:15:47.654Z,-7.00
2022-12-14T01:18:14.963Z,-6.90
2022-12-14T01:20:41.899Z,-6.70
2022-12-14T01:23:08.844Z,-6.60
2022-12-14T01:25:35.802Z,-6.60
2022-12-14T01:28:02.715Z,-6.50
2022-12-14T01:30:29.772Z,-6.40
2022-12-14T01:32:56.740Z,-6.30
2022-12-14T01:35:23.696Z,-6.20
2022-12-14T01:37:50.713Z,-6.20
2022-12-14T01:40:17.997Z,-6.10
2022-12-14T01:42:44.951Z,-6.10
2022-12-14T01:45:22.755Z,-6.10
2022-12-14T01:47:57.356Z,-6.00
2022-12-14T01:50:32.220Z,-5.90
2022-12-14T01:53:08.266Z,-6.00
2022-12-14T01:55:48.771Z,-5.90
2022-12-14T01:58:22.788Z,-5.80
2022-12-14T02:00:55.213Z,-5.80
2022-12-14T02:03:54.526Z,-5.80
2022-12-14T02:06:31.076Z,-5.70
2022-12-14T02:08:58.123Z,-5.60
2022-12-14T02:11:38.051Z,-5.50
2022-12-14T02:14:04.964Z,-5.40
2022-12-14T02:16:32.460Z,-5.40
2022-12-14T02:18:59.475Z,-5.40
2022-12-14T02:21:54.745Z,-5.30
2022-12-14T02:24:24.673Z,-5.20
2022-12-14T02:27:03.714Z,-5.20
2022-12-14T02:30:04.763Z,-5.20
2022-12-14T02:33:01.733Z,-5.10
2022-12-14T02:36:07.484Z,-5.10
2022-12-14T02:39:06.328Z,-5.00
2022-12-14T02:41:47.588Z,-5.00
2022-12-14T02:44:32.910Z,-4.90
2022-12-14T02:47:20.944Z,-4.90
2022-12-14T02:50:12.531Z,-4.90
2022-12-14T02:52:45.399Z,-4.90
2022-12-14T02:55:20.388Z,-5.00
2022-12-14T02:57:53.143Z,-5.00
2022-12-14T03:00:20.754Z,-4.90
2022-12-14T03:02:49.342Z,-5.00
2022-12-14T03:05:16.515Z,-4.90
2022-12-14T03:07:52.736Z,-5.00
2022-12-14T03:10:45.963Z,-5.00
2022-12-14T03:13:33.967Z,-4.90
2022-12-14T03:16:07.193Z,-5.00
2022-12-14T03:18:39.505Z,-5.00
2022-12-14T03:21:10.267Z,-5.10
2022-12-14T03:23:39.640Z,-5.10
2022-12-14T03:26:17.457Z,-5.10
2022-12-14T03:28:55.162Z,-5.10
2022-12-14T03:31:44.853Z,-5.20
2022-12-14T03:34:19.355Z,-5.20
2022-12-14T03:36:53.878Z,-5.20
2022-12-14T03:39:29.917Z,-5.20
2022-12-14T03:42:11.618Z,-5.30
2022-12-14T03:45:17.580Z,-5.30
2022-12-14T03:48:05.056Z,-5.20
2022-12-14T03:50:43.110Z,-5.20
2022-12-14T03:53:15.651Z,-5.20
2022-12-14T03:56:10.106Z,-5.20
2022-12-14T03:58:53.807Z,-5.10
2022-12-14T04:01:49.692Z,-5.10
2022-12-14T04:04:39.078Z,-5.00
2022-12-14T04:07:39.335Z,-5.00
2022-12-14T04:10:33.802Z,-4.90
2022-12-14T04:13:25.323Z,-4.90
2022-12-14T04:16:14.208Z,-4.80
2022-12-14T04:19:01.922Z,-4.80
2022-12-14T04:21:37.453Z,-4.70
2022-12-14T04:24:35.662Z,-4.60
2022-12-14T04:27:17.035Z,-4.60
2022-12-14T04:29:57.299Z,-4.60
2022-12-14T04:32:30.150Z,-4.60
2022-12-14T04:35:06.386Z,-4.60
2022-12-14T04:37:37.163Z,-4.60
2022-12-14T04:40:15.496Z,-4.60
2022-12-14T04:42:50.892Z,-4.60
2022-12-14T04:45:25.100Z,-4.60
2022-12-14T04:48:00.253Z,-4.60
2022-12-14T04:50:35.736Z,-4.50
2022-12-14T04:53:20.117Z,-4.50
2022-12-14T04:55:53.451Z,-4.40
2022-12-14T04:58:26.358Z,-4.40
2022-12-14T05:01:20.199Z,-4.30
2022-12-14T05:03:59.430Z,-4.30
2022-12-14T05:06:58.662Z,-4.30
2022-12-14T05:09:38.710Z,-4.20
2022-12-14T05:12:30.335Z,-4.20
2022-12-14T05:15:10.667Z,-4.20
2022-12-14T05:17:39.549Z,-4.20
2022-12-14T05:20:14.316Z,-4.20
2022-12-14T05:22:41.817Z,-4.20
2022-12-14T05:25:08.935Z,-4.20
2022-12-14T05:27:35.987Z,-4.20
2022-12-14T05:30:03.929Z,-4.20
2022-12-14T05:32:30.937Z,-4.10
2022-12-14T05:34:57.904Z,-4.10
2022-12-14T05:37:24.959Z,-4.10
2022-12-14T05:39:52.042Z,-4.10
2022-12-14T05:42:19.175Z,-4.00
2022-12-14T05:44:46.246Z,-4.00
2022-12-14T05:47:14.363Z,-4.00
2022-12-14T05:49:41.369Z,-3.90
2022-12-14T05:52:08.352Z,-3.90
2022-12-14T05:54:35.434Z,-3.90
2022-12-14T05:57:02.438Z,-3.90
2022-12-14T05:59:29.334Z,-3.90
2022-12-14T06:01:56.496Z,-3.90
2022-12-14T06:04:23.487Z,-3.80
2022-12-14T06:06:50.575Z,-3.80
2022-12-14T06:09:18.663Z,-3.80
2022-12-14T06:11:46.385Z,-3.80
2022-12-14T06:14:13.865Z,-3.70
2022-12-14T06:16:41.986Z,-3.70
2022-12-14T06:19:09.399Z,-3.80
2022-12-14T06:21:38.622Z,-3.80
2022-12-14T06:24:06.516Z,-3.70
2022-12-14T06:26:36.982Z,-3.70
2022-12-14T06:29:04.726Z,-3.70
2022-12-14T06:31:33.000Z,-3.70
2022-12-14T06:34:02.732Z,-3.80
2022-12-14T06:36:32.505Z,-3.80
2022-12-14T06:39:04.887Z,-3.80
2022-12-14T06:41:32.131Z,-3.80
2022-12-14T06:44:07.021Z,-3.80
2022-12-14T06:46:34.595Z,-3.70
2022-12-14T06:49:01.663Z,-3.70
2022-12-14T06:51:28.656Z,-3.70
2022-12-14T06:53:56.988Z,-3.60
2022-12-14T06:56:26.391Z,-3.60
2022-12-14T06:58:56.825Z,-3.60
2022-12-14T07:01:25.603Z,-3.50
2022-12-14T07:03:57.504Z,-3.50
2022-12-14T07:06:26.673Z,-3.50
2022-12-14T07:08:55.692Z,-3.40
2022-12-14T07:11:23.545Z,-3.40
2022-12-14T07:13:50.466Z,-3.40
2022-12-14T07:16:22.902Z,-3.40
2022-12-14T07:18:50.535Z,-3.30
2022-12-14T07:21:19.767Z,-3.30
2022-12-14T07:23:48.045Z,-3.30
2022-12-14T07:26:18.065Z,-3.30
2022-12-14T07:28:45.875Z,-3.20
2022-12-14T07:31:18.317Z,-3.20
2022-12-14T07:33:45.789Z,-3.20
2022-12-14T07:36:18.925Z,-3.20
2022-12-14T07:38:48.021Z,-3.10
2022-12-14T07:41:22.695Z,-3.10
2022-12-14T07:43:51.930Z,-3.00
2022-12-14T07:46:22.326Z,-3.00
2022-12-14T07:48:51.715Z,-2.90
2022-12-14T07:51:21.228Z,-2.90
2022-12-14T07:53:48.483Z,-2.90
2022-12-14T07:56:18.009Z,-2.80
2022-12-14T07:58:44.977Z,-2.80
2022-12-14T08:01:14.865Z,-2.60
2022-12-14T08:03:47.248Z,-2.70
2022-12-14T08:06:15.835Z,-2.50
2022-12-14T08:08:43.064Z,-2.50
2022-12-14T08:11:10.551Z,-2.40
2022-12-14T08:13:39.114Z,-2.30
2022-12-14T08:16:18.835Z,-2.20
2022-12-14T08:18:45.827Z,-2.30
2022-12-14T08:21:15.498Z,-2.30
2022-12-14T08:23:42.897Z,-2.30
2022-12-14T08:26:09.936Z,-2.30
2022-12-14T08:28:37.094Z,-2.30
2022-12-14T08:31:15.601Z,-2.30
2022-12-14T08:33:44.257Z,-2.20
2022-12-14T08:36:16.674Z,-2.10
2022-12-14T08:38:43.603Z,-1.90
2022-12-14T08:41:13.582Z,-1.80
2022-12-14T08:43:41.527Z,-1.80
2022-12-14T08:46:10.106Z,-1.80
2022-12-14T08:48:37.898Z,-1.80
2022-12-14T08:51:09.420Z,-1.90
2022-12-14T08:53:37.531Z,-1.90
2022-12-14T08:56:17.139Z,-2.00
2022-12-14T08:58:44.500Z,-2.00
2022-12-14T09:01:18.171Z,-2.10
2022-12-14T09:03:48.275Z,-2.20
2022-12-14T09:06:21.387Z,-2.30
2022-12-14T09:08:49.773Z,-2.30
2022-12-14T09:11:19.568Z,-2.40
2022-12-14T09:13:47.290Z,-2.40
2022-12-14T09:16:24.251Z,-2.30
2022-12-14T09:18:51.172Z,-2.20
2022-12-14T09:21:18.346Z,-2.20
2022-12-14T09:23:46.052Z,-2.10
2022-12-14T09:26:12.966Z,-2.10
2022-12-14T09:28:41.940Z,-2.00
2022-12-14T09:31:12.709Z,-2.00
2022-12-14T09:33:39.521Z,-2.00
2022-12-14T09:36:09.460Z,-2.00
2022-12-14T09:38:37.915Z,-2.10
2022-12-14T09:41:08.012Z,-2.10
2022-12-14T09:43:46.082Z,-2.10
2022-12-14T09:47:02.455Z,-2.10
2022-12-14T09:49:33.299Z,-2.10
2022-12-14T09:52:04.443Z,-2.10
2022-12-14T09:54:36.322Z,-2.00
2022-12-14T09:57:23.708Z,-2.00
2022-12-14T09:59:54.160Z,-2.00
2022-12-14T10:02:33.041Z,-2.00
2022-12-14T10:05:21.553Z,-2.00
2022-12-14T10:08:13.381Z,-2.00
2022-12-14T10:10:43.571Z,-1.90
2022-12-14T10:13:37.844Z,-2.00
2022-12-14T10:19:14.992Z,-1.90
2022-12-14T10:21:44.961Z,-1.90
2022-12-14T10:24:17.643Z,-1.80
2022-12-14T10:26:55.779Z,-1.80
2022-12-14T10:29:28.679Z,-1.70
2022-12-14T10:32:00.440Z,-1.60
2022-12-14T10:34:30.372Z,-1.50
2022-12-14T10:37:24.329Z,-1.30
2022-12-14T10:39:57.174Z,-1.20
2022-12-14T10:42:33.092Z,-1.10
2022-12-14T10:45:42.580Z,-1.10
2022-12-14T10:48:21.706Z,-1.20
2022-12-14T10:51:37.967Z,-1.20
2022-12-14T10:54:10.731Z,-1.20
2022-12-14T10:56:40.801Z,-1.30
2022-12-14T10:59:35.161Z,-1.30
2022-12-14T11:02:21.779Z,-1.30
2022-12-14T11:05:03.866Z,-1.30
2022-12-14T11:07:33.858Z,-1.30
2022-12-14T11:10:21.239Z,-1.40
2022-12-14T11:13:03.042Z,-1.40
2022-12-14T11:15:52.495Z,-1.40
2022-12-14T11:18:20.241Z,-1.40
2022-12-14T11:20:54.834Z,-1.40
2022-12-14T11:23:29.834Z,-1.40
2022-12-14T11:26:04.797Z,-1.40
2022-12-14T11:28:50.058Z,-1.40
2022-12-14T11:31:20.653Z,-1.40
2022-12-14T11:33:53.458Z,-1.40
2022-12-14T11:36:39.986Z,-1.30
2022-12-14T11:39:23.313Z,-1.30
2022-12-14T11:41:59.107Z,-1.20
2022-12-14T11:44:36.515Z,-1.10
2022-12-14T11:47:03.822Z,-1.00
2022-12-14T11:49:46.173Z,-0.80
2022-12-14T11:52:21.223Z,-0.70
2022-12-14T11:55:26.203Z,-0.70
2022-12-14T11:57:57.259Z,-0.60
2022-12-14T12:00:31.119Z,-0.70
2022-12-14T12:03:25.443Z,-0.70
2022-12-14T12:05:54.051Z,-0.60
2022-12-14T12:08:29.596Z,-0.60
2022-12-14T12:11:02.952Z,-0.60
2022-12-14T12:13:37.132Z,-0.50
2022-12-14T12:16:17.165Z,-0.50
2022-12-14T12:18:56.305Z,-0.50
2022-12-14T12:21:36.169Z,-0.50
2022-12-14T12:24:23.499Z,-0.50
2022-12-14T12:26:59.980Z,-0.50
2022-12-14T12:29:44.834Z,-0.40
2022-12-14T12:32:17.688Z,-0.40
2022-12-14T12:34:55.932Z,-0.50
2022-12-14T12:37:35.243Z,-0.50
2022-12-14T12:40:31.949Z,-0.50
2022-12-14T12:43:11.356Z,-0.50
2022-12-14T12:45:50.015Z,-0.50
2022-12-14T12:48:32.663Z,-0.50
2022-12-14T12:51:16.040Z,-0.50
2022-12-14T12:53:45.709Z,-0.50
2022-12-14T12:56:18.945Z,-0.50
2022-12-14T12:58:52.664Z,-0.50
2022-12-14T13:01:32.482Z,-0.50
2022-12-14T13:04:03.821Z,-0.50
2022-12-14T13:06:32.268Z,-0.50
2022-12-14T13:09:20.997Z,-0.50
2022-12-14T13:11:48.451Z,-0.50
2022-12-14T13:14:30.980Z,-0.50
2022-12-14T13:17:02.908Z,-0.50
2022-12-14T13:19:54.249Z,-0.60
2022-12-14T13:22:33.500Z,-0.60
2022-12-14T13:25:10.936Z,-0.70
2022-12-14T13:27:43.646Z,-0.80
2022-12-14T13:30:46.767Z,-1.00
2022-12-14T13:33:13.666Z,-1.20
2022-12-14T13:35:52.537Z,-1.30
2022-12-14T13:38:33.953Z,-1.40
2022-12-14T13:41:07.270Z,-1.50
2022-12-14T13:43:55.810Z,-1.50
2022-12-14T13:46:29.281Z,-1.60
2022-12-14T13:49:02.980Z,-1.70
2022-12-14T13:51:39.973Z,-1.70
2022-12-14T13:54:18.379Z,-1.70
2022-12-14T13:56:45.868Z,-1.80
2022-12-14T13:59:41.840Z,-1.80
2022-12-14T14:02:28.844Z,-1.80
2022-12-14T14:05:18.883Z,-1.90
2022-12-14T14:08:32.130Z,-2.00
2022-12-14T14:11:38.083Z,-2.10
2022-12-14T14:14:43.961Z,-2.30
2022-12-14T14:17:29.268Z,-2.40
2022-12-14T14:19:58.261Z,-2.60
2022-12-14T14:22:27.719Z,-2.70
2022-12-14T14:25:25.049Z,-2.80
2022-12-14T14:28:01.240Z,-2.80
2022-12-14T14:30:34.246Z,-2.90
2022-12-14T14:33:36.290Z,-3.00
2022-12-14T14:35:49.816Z,-3.10
2022-12-14T14:38:32.321Z,-3.10
2022-12-14T14:41:17.054Z,-3.20
2022-12-14T14:43:54.032Z,-3.30
2022-12-14T14:46:31.983Z,-3.30
2022-12-14T14:48:59.009Z,-3.40
2022-12-14T14:51:36.228Z,-3.40
2022-12-14T14:55:06.475Z,-3.50
2022-12-14T14:57:43.535Z,-3.60
2022-12-14T15:00:11.636Z,-3.70
2022-12-14T15:02:43.113Z,-3.70
2022-12-14T15:08:17.167Z,-3.90
2022-12-14T15:10:46.138Z,-4.00
2022-12-14T15:13:30.001Z,-4.10
2022-12-14T15:15:57.416Z,-4.10
2022-12-14T15:18:26.717Z,-4.20
2022-12-14T15:21:04.431Z,-4.20
2022-12-14T15:23:49.404Z,-4.30
2022-12-14T15:26:23.342Z,-4.40
2022-12-14T15:28:59.113Z,-4.40
2022-12-14T15:31:30.699Z,-4.50
2022-12-14T15:33:58.817Z,-4.50
2022-12-14T15:36:32.495Z,-4.60
2022-12-14T15:38:59.879Z,-4.70
2022-12-14T15:41:29.412Z,-4.70
2022-12-14T15:43:59.973Z,-4.70
2022-12-14T15:49:21.686Z,-4.80
2022-12-14T15:51:49.214Z,-4.90
2022-12-14T15:54:20.880Z,-4.90
2022-12-14T15:56:54.625Z,-5.00
2022-12-14T15:59:29.514Z,-5.00
2022-12-14T16:02:04.777Z,-5.00
2022-12-14T16:04:34.172Z,-5.00
2022-12-14T16:07:18.128Z,-5.10
2022-12-14T16:09:51.478Z,-5.00
2022-12-14T16:12:45.552Z,-5.10
2022-12-14T16:15:27.866Z,-5.00
2022-12-14T16:18:02.241Z,-4.90
2022-12-14T16:20:37.951Z,-4.70
2022-12-14T16:23:13.647Z,-4.70
2022-12-14T16:26:15.586Z,-4.60
2022-12-14T16:28:42.900Z,-4.50
2022-12-14T16:31:22.353Z,-4.50
2022-12-14T16:34:13.972Z,-4.40
2022-12-14T16:36:41.037Z,-4.30
2022-12-14T16:39:20.499Z,-4.30
2022-12-14T16:42:00.891Z,-4.30
2022-12-14T16:44:39.439Z,-4.30
2022-12-14T16:47:15.185Z,-4.30
2022-12-14T16:49:55.190Z,-4.20
2022-12-14T16:52:47.025Z,-4.20
2022-12-14T16:55:19.739Z,-4.20
2022-12-14T16:57:49.659Z,-4.10
2022-12-14T17:00:26.297Z,-4.10
2022-12-14T17:02:57.668Z,-4.00
2022-12-14T17:05:28.936Z,-4.00
2022-12-14T17:07:55.858Z,-3.90
2022-12-14T17:10:24.631Z,-3.90
2022-12-14T17:12:54.379Z,-3.80
2022-12-14T17:15:23.055Z,-3.80
2022-12-14T17:17:52.528Z,-3.80
2022-12-14T17:20:39.734Z,-3.80
2022-12-14T17:23:09.903Z,-3.80
2022-12-14T17:25:36.975Z,-3.80
2022-12-14T17:28:04.429Z,-3.80
2022-12-14T17:30:31.648Z,-3.90
2022-12-14T17:32:58.818Z,-3.90
2022-12-14T17:35:32.236Z,-3.90
2022-12-14T17:37:59.719Z,-3.90
2022-12-14T17:40:27.857Z,-4.00
2022-12-14T17:42:57.591Z,-4.00
2022-12-14T17:45:27.581Z,-4.00
2022-12-14T17:47:55.109Z,-4.10
2022-12-14T17:50:22.358Z,-4.00
2022-12-14T17:52:50.815Z,-4.10
2022-12-14T17:55:20.318Z,-4.20
2022-12-14T17:57:47.771Z,-4.20
2022-12-14T18:00:42.213Z,-4.30
2022-12-14T18:03:11.809Z,-4.30
2022-12-14T18:05:46.511Z,-4.30
2022-12-14T18:08:17.266Z,-4.40
2022-12-14T18:10:44.819Z,-4.30
2022-12-14T18:13:13.111Z,-4.40
2022-12-14T18:15:42.452Z,-4.40
2022-12-14T18:18:09.603Z,-4.50
2022-12-14T18:20:40.211Z,-4.60
2022-12-14T18:23:09.289Z,-4.70
2022-12-14T18:25:40.759Z,-4.90
2022-12-14T18:28:11.612Z,-5.00
2022-12-14T18:30:47.528Z,-5.20
2022-12-14T18:33:18.249Z,-5.20
2022-12-14T18:35:46.262Z,-5.40
2022-12-14T18:38:13.612Z,-5.60
2022-12-14T18:40:49.473Z,-5.50
2022-12-14T18:43:20.491Z,-5.70
2022-12-14T18:45:47.400Z,-5.70
2022-12-14T18:48:14.346Z,-5.80
2022-12-14T18:50:43.175Z,-5.80
2022-12-14T18:53:18.711Z,-5.90
2022-12-14T18:55:46.029Z,-5.80
2022-12-14T18:58:22.071Z,-6.10
2022-12-14T19:00:51.626Z,-6.10
2022-12-14T19:03:19.631Z,-6.10
2022-12-14T19:05:47.325Z,-6.10
2022-12-14T19:08:14.551Z,-6.20
2022-12-14T19:13:25.815Z,-6.30
2022-12-14T19:15:53.934Z,-6.40
2022-12-14T19:18:21.006Z,-6.50
2022-12-14T19:20:49.752Z,-6.50
2022-12-14T19:23:18.817Z,-6.40
2022-12-14T19:25:46.629Z,-6.50
2022-12-14T19:28:31.904Z,-6.60
2022-12-14T19:31:00.582Z,-6.70
2022-12-14T19:33:28.055Z,-6.80
2022-12-14T19:35:55.339Z,-6.90
2022-12-14T19:38:22.231Z,-6.90
2022-12-14T19:41:05.256Z,-7.00
2022-12-14T19:43:35.696Z,-7.10
2022-12-14T19:46:11.793Z,-7.20
2022-12-14T19:48:39.311Z,-7.30
2022-12-14T19:51:12.090Z,-7.30
2022-12-14T19:53:41.165Z,-7.40
2022-12-14T19:56:08.628Z,-7.40
2022-12-14T19:58:35.862Z,-7.50
2022-12-14T20:01:08.395Z,-7.50
2022-12-14T20:03:36.164Z,-7.50
2022-12-14T20:06:05.387Z,-7.40
2022-12-14T20:08:34.066Z,-7.40
2022-12-14T20:11:08.976Z,-7.40
2022-12-14T20:13:36.456Z,-7.50
2022-12-14T20:16:03.536Z,-7.60
2022-12-14T20:18:31.595Z,-7.60
2022-12-14T20:21:04.335Z,-7.50
2022-12-14T20:23:33.606Z,-7.50
2022-12-14T20:26:02.718Z,-7.50
2022-12-14T20:28:29.946Z,-7.50
2022-12-14T20:30:57.050Z,-7.50
2022-12-14T20:33:29.666Z,-7.30
2022-12-14T20:35:57.668Z,-7.60
2022-12-14T20:38:24.636Z,-7.50
2022-12-14T20:40:51.549Z,-7.50
2022-12-14T20:43:18.556Z,-7.50
2022-12-14T20:45:45.517Z,-7.50
2022-12-14T20:48:13.343Z,-7.50
2022-12-14T20:50:43.393Z,-7.40
2022-12-14T20:53:10.317Z,-7.40
2022-12-14T20:55:37.449Z,-7.40
2022-12-14T20:58:04.550Z,-7.40
2022-12-14T21:00:31.747Z,-7.40
2022-12-14T21:02:58.853Z,-7.50
2022-12-14T21:05:25.989Z,-7.40
2022-12-14T21:07:52.885Z,-7.40
2022-12-14T21:10:19.874Z,-7.40
2022-12-14T21:12:48.870Z,-7.40
2022-12-14T21:15:16.051Z,-7.40
2022-12-14T21:17:42.973Z,-7.40
2022-12-14T21:20:11.584Z,-7.50
2022-12-14T21:22:38.860Z,-7.50
2022-12-14T21:25:07.318Z,-7.50
2022-12-14T21:27:40.727Z,-7.50
2022-12-14T21:30:11.089Z,-7.50
2022-12-14T21:32:38.266Z,-7.50
2022-12-14T21:35:05.868Z,-7.50
2022-12-14T21:37:32.826Z,-7.50
2022-12-14T21:40:03.059Z,-7.50
2022-12-14T21:42:29.989Z,-7.70
2022-12-14T21:44:57.762Z,-7.70
2022-12-14T21:47:29.990Z,-7.70
2022-12-14T21:49:57.554Z,-7.80
2022-12-14T21:52:27.141Z,-7.80
2022-12-14T21:54:54.091Z,-7.80
2022-12-14T21:57:42.296Z,-7.80
2022-12-14T22:00:10.932Z,-7.80
2022-12-14T22:02:38.062Z,-7.80
2022-12-14T22:05:05.378Z,-7.80
2022-12-14T22:07:34.463Z,-7.80
2022-12-14T22:10:01.862Z,-7.80
2022-12-14T22:12:29.247Z,-7.70
2022-12-14T22:14:56.224Z,-7.70
2022-12-14T22:17:23.217Z,-7.70
2022-12-14T22:19:51.245Z,-7.60
2022-12-14T22:22:18.293Z,-7.60
2022-12-14T22:24:48.739Z,-7.60
2022-12-14T22:27:15.616Z,-7.60
2022-12-14T22:29:42.530Z,-7.60
2022-12-14T22:32:12.354Z,-7.60
2022-12-14T22:34:39.399Z,-7.70
2022-12-14T22:37:06.337Z,-7.70
2022-12-14T22:39:33.341Z,-7.80
2022-12-14T22:42:00.394Z,-7.80
2022-12-14T22:44:27.430Z,-7.80
2022-12-14T22:49:29.348Z,-7.90
2022-12-14T22:51:56.556Z,-7.90
2022-12-14T22:54:27.027Z,-7.90
2022-12-14T22:56:56.846Z,-7.80
2022-12-14T22:59:33.705Z,-7.80
2022-12-14T23:02:00.841Z,-7.80
2022-12-14T23:04:28.269Z,-7.90
2022-12-14T23:06:55.627Z,-8.00
2022-12-14T23:09:41.144Z,-8.00
2022-12-14T23:12:26.872Z,-7.90
2022-12-14T23:15:12.302Z,-7.90
2022-12-14T23:17:57.959Z,-7.90
2022-12-14T23:20:43.657Z,-7.90
2022-12-14T23:23:29.603Z,-7.90
2022-12-14T23:26:19.256Z,-7.80
2022-12-14T23:29:04.885Z,-7.80
2022-12-14T23:31:50.180Z,-7.90
2022-12-14T23:34:35.584Z,-7.80
2022-12-14T23:37:21.227Z,-7.90
2022-12-14T23:40:06.959Z,-7.90
2022-12-14T23:42:52.673Z,-7.90
2022-12-14T23:45:38.158Z,-8.00
2022-12-14T23:48:23.593Z,-7.90
2022-12-14T23:51:09.169Z,-7.90
2022-12-14T23:53:58.823Z,-8.00
2022-12-14T23:56:49.012Z,-8.00
2022-12-14T23:59:38.797Z,-8.00
